South Bend, Indiana
Current Conditions -  °F | °C
As of 6:54 PM on Wednesday 26 Nov 2014 (Local Time) from KSBN Reporting Station
Overcast Overcast  
Wind Chill: -6°   Ceiling: 2100
Heat Index: -2°   Visibility: 10mi
Dew Point: -7°   Wind: 6mph
Humidity: 72%   Direction: 30°NNE
Pressure: 30.11"   Gusts: NA
Location:  41.68°N, 86.25°W
Report Text: KSBN 262354Z 03005KT 10SM OVC021 M02/M07 A3011 RMK AO2 SLP208 T10221067 11017 21022 52001
Loading
Personal Weather Stations






























Interactive Weather Map New forecast layout! Learn more

10-Day Weather Forecast

Advertisements
Track Severe Weather on mobile